Time;durP1;ratioP1;P1;durP2;ratioP2;P2;SDS_P1;SDS_P2;PMS_P1;PMS_P2;Temp;Humidity;BMP_temperature;BMP_pressure;BME280_temperature;BME280_humidity;BME280_pressure;Samples;Min_cycle;Max_cycle;Signal;HPM_P1;HPM_P2
2023/07/21 00:01:53;;;;;;;1.20;1.10;;;20.70;63.00;;;;;;5136133;27;20234;-84
2023/07/21 00:04:20;;;;;;;1.40;1.30;;;20.70;63.00;;;;;;5118968;27;20261;-85
2023/07/21 00:06:50;;;;;;;1.60;1.50;;;20.70;63.00;;;;;;5118965;27;20224;-86
2023/07/21 00:09:19;;;;;;;1.67;1.58;;;20.80;63.00;;;;;;5101343;27;20187;-84
2023/07/21 00:11:45;;;;;;;1.33;1.23;;;20.70;62.90;;;;;;5101002;27;20236;-86
2023/07/21 00:14:13;;;;;;;1.30;1.20;;;20.70;62.90;;;;;;5118609;27;20162;-85
2023/07/21 00:16:39;;;;;;;1.05;1.02;;;20.70;62.90;;;;;;5135709;27;20230;-86
2023/07/21 00:19:06;;;;;;;1.40;1.30;;;20.70;62.90;;;;;;5118167;27;20633;-86
2023/07/21 00:21:34;;;;;;;1.27;1.17;;;20.70;62.90;;;;;;5118623;27;20610;-84
2023/07/21 00:24:01;;;;;;;1.40;1.30;;;20.70;62.90;;;;;;5135522;27;20163;-84
2023/07/21 00:26:27;;;;;;;1.48;1.33;;;20.70;62.90;;;;;;5136663;27;20163;-84
2023/07/21 00:28:53;;;;;;;1.50;1.40;;;20.70;62.90;;;;;;5118352;27;20159;-83
2023/07/21 00:31:23;;;;;;;1.70;1.50;;;20.70;62.90;;;;;;5118708;27;20606;-87
2023/07/21 00:33:53;;;;;;;1.40;1.30;;;20.80;63.00;;;;;;5117767;27;20187;-85
2023/07/21 00:36:23;;;;;;;1.48;1.38;;;20.70;62.90;;;;;;5117632;27;20230;-86
2023/07/21 00:38:49;;;;;;;1.30;1.20;;;20.70;63.00;;;;;;5100593;27;20182;-86
2023/07/21 00:41:17;;;;;;;1.35;1.23;;;20.70;62.90;;;;;;5136635;27;20524;-87
2023/07/21 00:43:43;;;;;;;1.33;1.23;;;20.70;63.00;;;;;;5135464;27;20213;-83
2023/07/21 00:46:10;;;;;;;1.42;1.33;;;20.80;63.00;;;;;;5135036;27;20164;-84
2023/07/21 00:48:37;;;;;;;1.30;1.17;;;20.60;63.00;;;;;;5136408;27;20522;-82
2023/07/21 00:51:02;;;;;;;1.30;1.20;;;20.70;63.00;;;;;;5134922;27;20309;-82
2023/07/21 00:53:28;;;;;;;1.38;1.27;;;20.80;62.90;;;;;;5136261;27;20172;-85
2023/07/21 00:55:54;;;;;;;1.33;1.23;;;20.70;62.90;;;;;;5134888;27;20595;-85
2023/07/21 00:58:22;;;;;;;1.20;1.10;;;20.70;63.00;;;;;;5136122;27;20580;-83
2023/07/21 01:00:48;;;;;;;1.42;1.33;;;20.70;63.00;;;;;;5135008;27;20221;-85
2023/07/21 01:03:15;;;;;;;1.33;1.23;;;20.70;63.00;;;;;;5134812;27;20156;-83
2023/07/21 01:05:43;;;;;;;1.35;1.25;;;20.70;63.00;;;;;;5135964;27;20155;-85
2023/07/21 01:08:10;;;;;;;1.30;1.20;;;20.70;63.00;;;;;;5134828;27;20147;-84
2023/07/21 01:10:36;;;;;;;1.20;1.10;;;20.70;63.00;;;;;;5134547;27;20155;-87
2023/07/21 01:13:02;;;;;;;1.40;1.30;;;20.70;63.00;;;;;;5135889;27;20174;-82
2023/07/21 01:15:29;;;;;;;1.40;1.30;;;20.70;63.00;;;;;;5134631;27;20272;-85
2023/07/21 01:17:59;;;;;;;1.25;1.15;;;20.70;63.00;;;;;;5134789;27;20249;-86
2023/07/21 01:20:27;;;;;;;1.30;1.20;;;20.70;63.10;;;;;;5099950;27;20179;-86
2023/07/21 01:23:02;;;;;;;1.35;1.25;;;20.70;63.00;;;;;;5134438;27;20260;-83
2023/07/21 01:25:28;;;;;;;1.42;1.33;;;20.70;63.00;;;;;;5135867;27;20200;-83
2023/07/21 01:27:54;;;;;;;1.23;1.10;;;20.60;62.90;;;;;;5134199;27;20156;-85
2023/07/21 01:30:20;;;;;;;1.30;1.20;;;20.70;63.00;;;;;;5133757;27;20159;-86
2023/07/21 01:32:47;;;;;;;1.45;1.35;;;20.70;63.00;;;;;;5134156;27;20556;-86
2023/07/21 01:35:15;;;;;;;1.38;1.20;;;20.70;62.90;;;;;;5134257;27;20236;-85
2023/07/21 01:37:42;;;;;;;1.30;1.20;;;20.70;62.90;;;;;;5134135;27;20148;-85
2023/07/21 01:40:09;;;;;;;1.30;1.20;;;20.70;63.00;;;;;;5134021;27;20151;-83
2023/07/21 01:42:35;;;;;;;1.30;1.20;;;20.70;63.00;;;;;;5117313;27;20167;-86
2023/07/21 01:45:02;;;;;;;1.38;1.27;;;20.70;63.00;;;;;;5135177;27;20159;-87
2023/07/21 01:47:31;;;;;;;1.23;1.13;;;20.70;63.00;;;;;;5135064;27;20182;-83
2023/07/21 01:49:58;;;;;;;1.38;1.27;;;20.70;63.00;;;;;;5117456;27;20175;-84
2023/07/21 01:52:26;;;;;;;1.40;1.30;;;20.70;63.00;;;;;;5116441;27;20223;-86
2023/07/21 01:54:54;;;;;;;1.13;1.02;;;20.70;63.00;;;;;;5116565;27;20650;-85
2023/07/21 01:57:24;;;;;;;1.20;1.10;;;20.60;63.00;;;;;;5133749;27;20167;-86
2023/07/21 01:59:50;;;;;;;1.30;1.20;;;20.70;63.00;;;;;;5135199;27;20155;-85
2023/07/21 02:02:21;;;;;;;1.10;1.00;;;20.70;63.00;;;;;;5116718;27;20175;-82
2023/07/21 02:04:50;;;;;;;1.35;1.25;;;20.70;63.00;;;;;;5099137;27;20179;-82
2023/07/21 02:07:16;;;;;;;1.30;1.20;;;20.70;63.00;;;;;;5133656;27;20148;-82
2023/07/21 02:09:42;;;;;;;1.60;1.50;;;20.70;63.00;;;;;;5133684;27;20660;-83
2023/07/21 02:12:11;;;;;;;1.27;1.17;;;20.70;63.00;;;;;;5133507;27;20182;-85
2023/07/21 02:14:37;;;;;;;1.65;1.30;;;20.70;63.00;;;;;;5133506;27;20224;-83
2023/07/21 02:17:03;;;;;;;1.20;1.10;;;20.60;63.00;;;;;;5133749;27;20151;-84
2023/07/21 02:19:29;;;;;;;1.20;1.10;;;20.70;63.00;;;;;;5116311;27;20160;-85
2023/07/21 02:21:55;;;;;;;1.30;1.20;;;20.70;63.00;;;;;;5133387;27;20204;-82
2023/07/21 02:24:21;;;;;;;1.70;1.27;;;20.60;63.00;;;;;;5133365;27;20602;-84
2023/07/21 02:26:47;;;;;;;1.33;1.20;;;20.70;63.10;;;;;;5116518;28;20188;-85
2023/07/21 02:29:13;;;;;;;1.40;1.30;;;20.70;63.00;;;;;;5133251;27;20547;-85
2023/07/21 02:31:39;;;;;;;1.20;1.10;;;20.60;63.00;;;;;;5115958;27;20159;-83
2023/07/21 02:34:05;;;;;;;1.30;1.20;;;20.60;63.10;;;;;;5133266;27;20182;-86
2023/07/21 02:36:31;;;;;;;1.20;1.10;;;20.70;63.10;;;;;;5134502;27;20262;-85
2023/07/21 02:38:57;;;;;;;1.20;1.10;;;20.70;63.10;;;;;;5133105;27;20194;-85
2023/07/21 02:41:23;;;;;;;1.30;1.20;;;20.70;63.10;;;;;;5115881;28;20154;-83
2023/07/21 02:43:49;;;;;;;1.30;1.20;;;20.70;63.00;;;;;;5133457;27;20187;-84
2023/07/21 02:46:15;;;;;;;1.30;1.20;;;20.70;63.00;;;;;;5134225;27;20162;-83
2023/07/21 02:48:41;;;;;;;1.38;1.27;;;20.70;63.00;;;;;;5133043;28;20621;-83
2023/07/21 02:51:07;;;;;;;1.20;1.10;;;20.70;63.00;;;;;;5115625;28;20222;-84
2023/07/21 02:53:32;;;;;;;1.50;1.40;;;20.70;63.00;;;;;;5099655;28;20171;-86
2023/07/21 02:56:00;;;;;;;1.10;1.10;;;20.70;63.10;;;;;;5132979;28;20193;-86
2023/07/21 02:58:26;;;;;;;1.27;1.17;;;20.70;63.10;;;;;;5116021;28;20171;-86
2023/07/21 03:00:54;;;;;;;1.45;1.35;;;20.60;63.00;;;;;;5134171;28;20151;-85
2023/07/21 03:03:25;;;;;;;1.25;1.15;;;20.60;63.00;;;;;;5133158;28;20582;-83
2023/07/21 03:05:52;;;;;;;1.40;1.10;;;20.60;63.00;;;;;;5081794;28;20189;-84
2023/07/21 03:08:26;;;;;;;1.35;1.25;;;20.70;63.00;;;;;;5132804;28;20240;-82
2023/07/21 03:10:53;;;;;;;1.10;1.00;;;20.60;63.00;;;;;;5133003;28;20159;-83
2023/07/21 03:13:20;;;;;;;1.30;1.20;;;20.60;63.00;;;;;;5133999;28;20216;-87
2023/07/21 03:15:46;;;;;;;1.45;1.35;;;20.60;63.00;;;;;;5132773;28;20648;-84
2023/07/21 03:18:12;;;;;;;1.45;1.35;;;20.70;63.00;;;;;;5133993;27;20156;-88
2023/07/21 03:20:38;;;;;;;1.25;1.15;;;20.70;63.00;;;;;;5132695;28;20243;-86
2023/07/21 03:23:07;;;;;;;1.17;1.08;;;20.70;63.00;;;;;;5134027;28;20159;-88
2023/07/21 03:25:35;;;;;;;1.30;1.20;;;20.60;62.90;;;;;;5132910;28;20316;-85
2023/07/21 03:28:02;;;;;;;1.30;1.20;;;20.70;63.00;;;;;;5134076;28;20164;-86
2023/07/21 03:30:32;;;;;;;1.40;1.20;;;20.70;63.00;;;;;;5132621;28;20167;-84
2023/07/21 03:32:58;;;;;;;1.38;1.27;;;20.70;63.00;;;;;;5114876;28;20182;-85
2023/07/21 03:35:24;;;;;;;1.23;1.17;;;20.70;63.00;;;;;;5132473;28;20274;-84
2023/07/21 03:37:50;;;;;;;1.65;1.20;;;20.70;62.90;;;;;;5132601;28;20613;-86
2023/07/21 03:40:16;;;;;;;1.27;1.17;;;20.60;62.80;;;;;;5132611;28;20317;-86
2023/07/21 03:42:42;;;;;;;1.30;1.20;;;20.70;62.70;;;;;;5132720;28;20625;-85
2023/07/21 03:45:08;;;;;;;1.10;1.00;;;20.70;62.60;;;;;;5132525;28;20597;-86
2023/07/21 03:47:35;;;;;;;1.25;1.20;;;20.80;62.50;;;;;;5132478;28;20259;-85
2023/07/21 03:50:01;;;;;;;1.42;1.30;;;20.80;62.60;;;;;;5132722;28;20155;-87
2023/07/21 03:52:31;;;;;;;1.42;1.25;;;20.80;62.50;;;;;;5132412;27;20231;-85
2023/07/21 03:54:57;;;;;;;1.30;1.20;;;20.80;62.50;;;;;;5118746;27;20665;-86
2023/07/21 03:57:23;;;;;;;1.15;1.05;;;20.80;62.40;;;;;;5136094;27;20250;-86
2023/07/21 03:59:49;;;;;;;1.30;1.20;;;20.80;62.40;;;;;;5137168;27;20190;-84
2023/07/21 04:02:16;;;;;;;1.20;1.10;;;20.80;62.40;;;;;;5118818;27;20555;-86
2023/07/21 04:04:43;;;;;;;1.23;1.13;;;20.80;62.30;;;;;;5137430;27;20152;-87
2023/07/21 04:07:10;;;;;;;1.30;1.20;;;20.80;62.30;;;;;;5137187;27;20201;-84
2023/07/21 04:09:36;;;;;;;1.20;1.10;;;20.80;62.10;;;;;;5136278;27;20621;-85
2023/07/21 04:12:03;;;;;;;1.35;1.20;;;20.90;62.10;;;;;;5135922;27;20239;-86
2023/07/21 04:14:28;;;;;;;1.30;1.20;;;20.90;62.00;;;;;;5135641;27;20151;-83
2023/07/21 04:16:56;;;;;;;1.20;1.10;;;20.90;62.00;;;;;;5118698;27;20630;-85
2023/07/21 04:19:22;;;;;;;1.20;1.10;;;20.90;61.90;;;;;;5135654;27;20163;-86
2023/07/21 04:21:48;;;;;;;1.88;1.20;;;20.90;61.90;;;;;;5118714;27;20514;-85
2023/07/21 04:24:14;;;;;;;1.40;1.30;;;21.00;61.80;;;;;;5135572;27;20148;-85
2023/07/21 04:26:40;;;;;;;1.38;1.00;;;21.00;61.70;;;;;;5135444;27;20167;-84
2023/07/21 04:29:06;;;;;;;1.60;1.05;;;20.90;61.80;;;;;;5135744;27;20212;-86
2023/07/21 04:31:32;;;;;;;1.23;1.13;;;21.00;61.80;;;;;;5135432;27;20181;-84
2023/07/21 04:33:58;;;;;;;1.20;1.10;;;21.00;61.70;;;;;;5118352;27;20147;-83
2023/07/21 04:36:25;;;;;;;1.20;1.10;;;21.00;61.70;;;;;;5118442;27;20203;-86
2023/07/21 04:38:51;;;;;;;0.90;0.90;;;21.00;61.70;;;;;;5136561;27;20152;-85
2023/07/21 04:41:17;;;;;;;0.90;0.90;;;21.00;61.50;;;;;;5136530;27;20147;-84
2023/07/21 04:43:46;;;;;;;1.27;1.17;;;21.00;61.60;;;;;;5136575;27;20151;-83
2023/07/21 04:46:13;;;;;;;0.85;0.85;;;21.10;61.40;;;;;;5117402;27;20183;-86
2023/07/21 04:48:39;;;;;;;0.93;0.93;;;21.10;61.40;;;;;;5117977;27;20254;-86
2023/07/21 04:51:04;;;;;;;1.27;1.17;;;21.10;61.20;;;;;;5141192;27;20286;-85
2023/07/21 04:53:30;;;;;;;1.35;1.20;;;21.10;61.30;;;;;;5156890;27;20162;-85
2023/07/21 04:55:57;;;;;;;1.10;1.00;;;21.10;61.20;;;;;;5121253;27;20202;-86
2023/07/21 04:58:23;;;;;;;1.20;1.10;;;21.10;61.20;;;;;;5121291;27;20198;-85
2023/07/21 05:00:50;;;;;;;1.30;1.20;;;21.20;61.20;;;;;;5138288;27;20154;-85
2023/07/21 05:03:16;;;;;;;0.90;0.90;;;21.10;61.10;;;;;;5157141;27;20238;-85
2023/07/21 05:05:43;;;;;;;1.20;0.90;;;21.20;61.10;;;;;;5137123;27;20193;-84
2023/07/21 05:08:09;;;;;;;1.20;1.10;;;21.10;61.10;;;;;;5138060;27;20579;-85
2023/07/21 05:10:35;;;;;;;1.17;1.08;;;21.20;61.20;;;;;;5138093;27;20247;-86
2023/07/21 05:13:01;;;;;;;1.15;1.05;;;21.10;61.20;;;;;;5156564;27;20151;-85
2023/07/21 05:15:27;;;;;;;1.17;1.08;;;21.20;61.20;;;;;;5156459;27;20550;-83
2023/07/21 05:17:54;;;;;;;1.40;1.30;;;21.20;61.00;;;;;;5120766;27;20166;-87
2023/07/21 05:20:20;;;;;;;1.05;0.95;;;21.10;61.10;;;;;;5138405;27;20261;-86
2023/07/21 05:22:46;;;;;;;1.20;1.10;;;21.10;61.10;;;;;;5156423;27;20179;-85
2023/07/21 05:25:17;;;;;;;1.10;1.00;;;21.20;61.10;;;;;;5137795;27;20170;-84
2023/07/21 05:27:47;;;;;;;1.13;1.05;;;21.10;61.00;;;;;;5087462;27;20187;-87
2023/07/21 05:30:13;;;;;;;1.20;1.10;;;21.10;61.10;;;;;;5138177;27;20143;-82
2023/07/21 05:32:41;;;;;;;1.25;1.15;;;21.10;61.10;;;;;;5138199;27;20162;-83
2023/07/21 05:35:10;;;;;;;0.98;0.98;;;21.10;61.10;;;;;;5120696;27;20229;-87
2023/07/21 05:37:36;;;;;;;1.20;1.10;;;21.20;61.10;;;;;;5120640;27;20261;-84
2023/07/21 05:40:03;;;;;;;1.20;1.10;;;21.10;61.20;;;;;;5120514;27;20163;-85
2023/07/21 05:42:29;;;;;;;1.00;0.90;;;21.00;61.70;;;;;;5120690;27;20159;-83
2023/07/21 05:44:55;;;;;;;0.90;0.90;;;21.00;62.30;;;;;;5137480;27;20162;-82
2023/07/21 05:47:22;;;;;;;2.47;1.10;;;20.90;62.40;;;;;;5155820;27;20158;-85
2023/07/21 05:49:48;;;;;;;1.08;1.00;;;20.90;62.70;;;;;;5120299;27;20178;-83
2023/07/21 05:52:14;;;;;;;0.90;0.90;;;20.80;63.00;;;;;;5133730;27;20227;-82
2023/07/21 05:54:41;;;;;;;1.20;1.10;;;20.80;63.40;;;;;;5117341;27;20178;-84
2023/07/21 05:57:07;;;;;;;0.85;0.85;;;20.70;63.70;;;;;;5133765;27;20186;-87
2023/07/21 05:59:33;;;;;;;1.85;1.25;;;20.70;64.00;;;;;;5135553;27;20148;-85
2023/07/21 06:01:59;;;;;;;1.08;1.00;;;20.60;64.10;;;;;;5133738;27;20193;-83
2023/07/21 06:04:25;;;;;;;1.17;1.08;;;20.60;64.40;;;;;;5116448;27;20610;-86
2023/07/21 06:06:53;;;;;;;1.13;1.02;;;20.60;64.70;;;;;;5133677;27;20246;-81
2023/07/21 06:09:19;;;;;;;0.90;0.90;;;20.50;64.80;;;;;;5134948;27;20152;-85
2023/07/21 06:11:46;;;;;;;1.20;1.10;;;20.60;64.90;;;;;;5133452;27;20159;-87
2023/07/21 06:14:12;;;;;;;0.95;0.95;;;20.50;65.00;;;;;;5133646;27;20215;-87
2023/07/21 06:16:38;;;;;;;1.15;1.05;;;20.50;65.30;;;;;;5134468;27;20544;-85
2023/07/21 06:19:04;;;;;;;1.27;1.17;;;20.50;65.40;;;;;;5116415;27;20185;-86
2023/07/21 06:21:30;;;;;;;1.13;1.02;;;20.50;65.40;;;;;;5133407;27;20189;-85
2023/07/21 06:23:56;;;;;;;1.25;1.10;;;20.50;66.40;;;;;;5133292;27;20610;-82
2023/07/21 06:26:21;;;;;;;1.30;1.17;;;20.40;65.70;;;;;;5134798;27;20152;-87
2023/07/21 06:28:48;;;;;;;1.50;1.40;;;20.40;65.90;;;;;;5133716;27;20167;-84
2023/07/21 06:31:14;;;;;;;0.88;0.88;;;20.40;66.00;;;;;;5133091;27;20220;-86
2023/07/21 06:33:41;;;;;;;1.40;1.30;;;20.40;66.10;;;;;;5134380;27;20159;-83
2023/07/21 06:36:06;;;;;;;1.60;1.15;;;20.40;66.10;;;;;;5133152;27;20195;-84
2023/07/21 06:38:36;;;;;;;1.13;1.02;;;20.40;66.00;;;;;;5134256;27;20152;-88
2023/07/21 06:41:04;;;;;;;1.38;1.02;;;20.50;66.10;;;;;;5098501;27;20244;-85
2023/07/21 06:43:32;;;;;;;1.80;1.23;;;20.50;66.20;;;;;;5116125;28;20625;-83
2023/07/21 06:45:58;;;;;;;1.38;1.27;;;20.40;66.10;;;;;;5133280;27;20162;-84
2023/07/21 06:48:24;;;;;;;1.38;1.23;;;20.50;66.10;;;;;;5133251;27;20151;-85
2023/07/21 06:50:50;;;;;;;1.30;1.20;;;20.50;66.20;;;;;;5135944;27;20210;-84
2023/07/21 06:53:17;;;;;;;1.30;1.20;;;20.50;66.20;;;;;;5136804;27;20158;-85
2023/07/21 06:55:45;;;;;;;1.13;1.02;;;20.50;66.30;;;;;;5136858;27;20187;-84
2023/07/21 06:58:11;;;;;;;1.20;1.10;;;20.50;66.40;;;;;;5154852;27;20166;-83
2023/07/21 07:00:36;;;;;;;1.10;1.00;;;20.40;66.40;;;;;;5154920;27;20147;-84
2023/07/21 07:03:02;;;;;;;1.48;1.20;;;20.50;66.50;;;;;;5119117;27;20194;-87
2023/07/21 07:05:29;;;;;;;1.40;1.30;;;20.50;66.50;;;;;;5136382;27;20532;-82
2023/07/21 07:07:55;;;;;;;1.35;1.25;;;20.50;66.60;;;;;;5155729;27;20155;-83
2023/07/21 07:10:24;;;;;;;2.10;1.33;;;20.40;66.60;;;;;;5136117;27;20177;-83
2023/07/21 07:12:51;;;;;;;1.52;1.20;;;20.40;66.70;;;;;;5101801;27;20540;-85
2023/07/21 07:15:17;;;;;;;1.73;1.20;;;20.50;67.00;;;;;;5136246;27;20293;-84
2023/07/21 07:17:43;;;;;;;1.40;1.30;;;20.50;66.90;;;;;;5120403;27;20565;-88
2023/07/21 07:20:11;;;;;;;1.30;1.20;;;20.50;66.70;;;;;;5137165;27;20540;-83
2023/07/21 07:22:38;;;;;;;1.25;1.10;;;20.50;66.90;;;;;;5156068;27;20163;-86
2023/07/21 07:25:04;;;;;;;1.13;1.02;;;20.50;67.00;;;;;;5119876;27;20166;-84
2023/07/21 07:27:30;;;;;;;1.77;1.55;;;20.50;66.80;;;;;;5136574;27;20159;-86
2023/07/21 07:29:56;;;;;;;1.33;1.23;;;20.50;66.80;;;;;;5123797;27;20577;-84
2023/07/21 07:32:22;;;;;;;1.58;1.30;;;20.50;66.80;;;;;;5141275;27;20665;-85
2023/07/21 07:34:56;;;;;;;1.40;1.25;;;20.70;66.90;;;;;;5123540;27;20163;-83
2023/07/21 07:37:23;;;;;;;2.35;1.25;;;20.80;66.30;;;;;;5107765;27;20186;-84
2023/07/21 07:39:49;;;;;;;1.55;1.40;;;20.80;66.20;;;;;;5141330;27;20613;-83
2023/07/21 07:42:21;;;;;;;1.17;1.08;;;20.70;66.00;;;;;;5161132;27;20234;-85
2023/07/21 07:44:48;;;;;;;1.45;1.35;;;20.70;67.30;;;;;;5109608;27;20198;-83
2023/07/21 07:47:13;;;;;;;1.50;1.40;;;20.60;66.70;;;;;;5160094;27;20147;-83
2023/07/21 07:49:40;;;;;;;1.33;1.23;;;20.60;66.90;;;;;;5140649;27;20161;-83
2023/07/21 07:52:08;;;;;;;1.27;1.17;;;20.70;67.10;;;;;;5119529;27;20238;-84
2023/07/21 07:54:35;;;;;;;1.50;1.40;;;20.60;66.90;;;;;;5138019;27;20662;-82
2023/07/21 07:57:04;;;;;;;1.55;1.40;;;20.60;67.10;;;;;;5119395;27;20704;-85
2023/07/21 07:59:30;;;;;;;2.28;1.38;;;20.60;68.10;;;;;;5119097;27;20634;-86
2023/07/21 08:01:57;;;;;;;1.38;1.27;;;20.50;67.20;;;;;;5136320;27;20183;-85
2023/07/21 08:04:23;;;;;;;1.40;1.30;;;20.50;67.30;;;;;;5137492;27;20258;-86
2023/07/21 08:06:52;;;;;;;1.20;1.10;;;20.50;67.40;;;;;;5119126;27;20629;-85
2023/07/21 08:09:18;;;;;;;1.60;1.33;;;20.50;67.40;;;;;;5136449;27;20156;-86
2023/07/21 08:11:44;;;;;;;1.50;1.23;;;20.50;67.50;;;;;;5136775;27;20517;-83
2023/07/21 08:14:14;;;;;;;1.50;1.40;;;20.50;67.40;;;;;;5136194;27;20156;-85
2023/07/21 08:16:40;;;;;;;1.33;1.23;;;20.50;67.20;;;;;;5101348;27;20222;-83
2023/07/21 08:19:06;;;;;;;1.75;1.65;;;20.50;67.20;;;;;;5137703;27;20335;-86
2023/07/21 08:21:32;;;;;;;1.55;1.40;;;20.60;67.10;;;;;;5136228;27;20155;-84
2023/07/21 08:23:58;;;;;;;1.50;1.40;;;20.60;67.20;;;;;;5135963;27;20618;-84
2023/07/21 08:26:24;;;;;;;1.83;1.58;;;20.60;67.10;;;;;;5136055;27;20626;-85
2023/07/21 08:28:52;;;;;;;1.45;1.15;;;20.60;67.10;;;;;;5119260;27;20164;-85
2023/07/21 08:31:19;;;;;;;1.50;1.40;;;20.60;67.00;;;;;;5136412;27;20169;-85
2023/07/21 08:33:45;;;;;;;1.55;1.45;;;20.70;67.10;;;;;;5136327;27;20164;-85
2023/07/21 08:36:14;;;;;;;1.60;1.50;;;20.80;66.50;;;;;;5137092;27;20186;-85
2023/07/21 08:38:40;;;;;;;1.52;1.35;;;20.80;66.30;;;;;;5084061;27;20641;-85
2023/07/21 08:41:08;;;;;;;1.30;1.20;;;20.90;66.10;;;;;;5136094;27;20163;-86
2023/07/21 08:43:34;;;;;;;1.50;1.40;;;20.80;66.10;;;;;;5118526;27;20163;-85
2023/07/21 08:46:01;;;;;;;1.85;1.50;;;20.90;65.90;;;;;;5135875;27;20592;-84
2023/07/21 08:48:28;;;;;;;1.67;1.58;;;20.90;65.80;;;;;;5136975;27;20147;-85
2023/07/21 08:50:55;;;;;;;1.60;1.50;;;20.90;65.60;;;;;;5140401;27;20290;-83
2023/07/21 08:53:26;;;;;;;1.75;1.65;;;20.90;65.70;;;;;;5139318;27;20170;-84
2023/07/21 08:55:53;;;;;;;1.70;1.60;;;20.90;66.00;;;;;;5087488;27;20237;-86
2023/07/21 08:58:21;;;;;;;1.50;1.40;;;20.90;66.00;;;;;;5157406;27;20159;-86
2023/07/21 09:00:48;;;;;;;1.83;1.52;;;21.00;65.40;;;;;;5105028;27;20208;-82
2023/07/21 09:03:20;;;;;;;1.40;1.30;;;21.10;65.40;;;;;;5157185;27;20147;-84
2023/07/21 09:05:47;;;;;;;1.55;1.45;;;21.00;66.10;;;;;;5123491;27;20170;-86
2023/07/21 09:08:22;;;;;;;1.60;1.45;;;21.10;65.10;;;;;;5122902;27;20150;-86
2023/07/21 09:10:48;;;;;;;1.60;1.50;;;21.20;64.90;;;;;;5141211;27;20180;-84
2023/07/21 09:13:16;;;;;;;1.20;1.10;;;21.10;64.90;;;;;;5123949;27;20159;-85
2023/07/21 09:15:50;;;;;;;1.60;1.50;;;21.20;64.70;;;;;;5107454;27;20190;-84
2023/07/21 09:18:15;;;;;;;1.38;1.27;;;21.30;64.50;;;;;;5141040;27;20158;-85
2023/07/21 09:20:44;;;;;;;1.55;1.45;;;21.20;64.40;;;;;;5105083;27;20151;-87
2023/07/21 09:23:11;;;;;;;1.58;1.48;;;21.30;64.40;;;;;;5105463;27;20171;-88
2023/07/21 09:25:47;;;;;;;2.10;1.70;;;21.30;64.30;;;;;;5087847;27;20182;-83
2023/07/21 09:28:17;;;;;;;1.60;1.50;;;21.20;64.30;;;;;;5091752;27;20174;-86
2023/07/21 09:30:54;;;;;;;1.88;1.70;;;21.30;64.20;;;;;;5087823;27;20182;-86
2023/07/21 09:33:23;;;;;;;1.65;1.52;;;21.30;64.10;;;;;;5139290;27;20283;-85
2023/07/21 09:36:02;;;;;;;1.67;1.58;;;21.30;64.10;;;;;;5087981;27;20211;-83
2023/07/21 09:38:29;;;;;;;1.73;1.63;;;21.20;64.20;;;;;;5109936;27;20181;-83
2023/07/21 09:41:01;;;;;;;1.83;1.73;;;21.30;64.00;;;;;;5087442;27;20201;-85
2023/07/21 09:43:29;;;;;;;1.50;1.40;;;21.30;63.70;;;;;;5070375;27;20170;-87
2023/07/21 09:45:56;;;;;;;1.60;1.50;;;21.30;63.80;;;;;;5138997;27;20166;-85
2023/07/21 09:48:23;;;;;;;1.83;1.60;;;21.30;63.80;;;;;;5139333;27;20170;-87
2023/07/21 09:50:48;;;;;;;1.60;1.50;;;21.40;63.90;;;;;;5156524;27;20189;-83
2023/07/21 09:53:14;;;;;;;1.92;1.75;;;21.50;63.50;;;;;;5138814;27;20163;-84
2023/07/21 09:55:41;;;;;;;1.63;1.52;;;21.50;63.50;;;;;;5139022;27;20194;-85
2023/07/21 09:58:09;;;;;;;1.80;1.70;;;21.50;63.40;;;;;;5138870;27;20159;-86
2023/07/21 10:00:35;;;;;;;1.73;1.63;;;21.40;63.50;;;;;;5137931;27;20284;-86
2023/07/21 10:03:01;;;;;;;1.80;1.70;;;21.50;63.20;;;;;;5136968;27;20629;-87
2023/07/21 10:05:27;;;;;;;1.60;1.50;;;21.40;63.20;;;;;;5156096;27;20619;-86
2023/07/21 10:07:54;;;;;;;1.58;1.48;;;21.40;63.20;;;;;;5137201;27;20203;-84
2023/07/21 10:10:20;;;;;;;1.70;1.60;;;21.40;63.20;;;;;;5155970;27;20261;-83
2023/07/21 10:12:52;;;;;;;1.75;1.63;;;21.40;63.10;;;;;;5156159;27;20561;-85
2023/07/21 10:15:33;;;;;;;1.70;1.60;;;21.50;62.80;;;;;;5137926;27;20193;-82
2023/07/21 10:18:04;;;;;;;1.70;1.60;;;21.30;62.90;;;;;;5108181;27;20183;-84
2023/07/21 10:20:49;;;;;;;1.80;1.65;;;21.40;63.00;;;;;;5155866;27;20169;-87
2023/07/21 10:23:17;;;;;;;1.77;1.67;;;21.40;62.90;;;;;;5155869;27;20614;-86
2023/07/21 10:25:56;;;;;;;1.65;1.55;;;21.40;63.10;;;;;;5120811;27;20280;-87
2023/07/21 10:28:24;;;;;;;1.90;1.80;;;21.50;63.70;;;;;;5137887;27;20673;-84
2023/07/21 10:30:52;;;;;;;2.33;1.80;;;21.40;62.90;;;;;;5137428;27;20150;-84
2023/07/21 10:33:20;;;;;;;1.65;1.55;;;21.50;62.80;;;;;;5137984;27;20147;-86
2023/07/21 10:35:48;;;;;;;1.80;1.70;;;21.50;62.60;;;;;;5137607;27;20281;-87
2023/07/21 10:38:18;;;;;;;1.60;1.50;;;21.50;62.60;;;;;;5137157;27;20616;-84
2023/07/21 10:40:45;;;;;;;2.70;1.83;;;21.40;62.70;;;;;;5120460;27;20706;-84
2023/07/21 10:43:15;;;;;;;1.88;1.77;;;21.40;63.00;;;;;;5121064;27;20166;-84
2023/07/21 10:45:53;;;;;;;1.75;1.60;;;21.30;63.20;;;;;;5086002;27;20216;-86
2023/07/21 10:48:21;;;;;;;1.80;1.70;;;21.30;62.80;;;;;;5090253;27;20194;-84
2023/07/21 10:50:51;;;;;;;1.75;1.58;;;21.40;62.60;;;;;;5136732;27;20155;-84
2023/07/21 10:53:23;;;;;;;1.70;1.50;;;21.40;62.70;;;;;;5138161;27;20167;-86
2023/07/21 10:55:52;;;;;;;2.53;1.63;;;21.40;62.60;;;;;;5086221;27;20218;-84
2023/07/21 10:58:18;;;;;;;2.00;1.80;;;21.40;62.50;;;;;;5155802;27;20663;-86
2023/07/21 11:00:50;;;;;;;1.60;1.50;;;21.40;62.10;;;;;;5137670;27;20173;-84
2023/07/21 11:03:17;;;;;;;2.38;1.95;;;21.40;62.20;;;;;;5105839;27;20174;-85
2023/07/21 11:05:43;;;;;;;1.80;1.70;;;21.40;62.00;;;;;;5141797;27;20181;-82
2023/07/21 11:08:13;;;;;;;2.03;1.92;;;21.40;62.30;;;;;;5141492;27;20571;-82
2023/07/21 11:10:39;;;;;;;1.92;1.70;;;21.40;62.30;;;;;;5140801;27;20620;-88
2023/07/21 11:13:05;;;;;;;2.10;1.90;;;21.40;62.30;;;;;;5140393;27;20571;-85
2023/07/21 11:15:30;;;;;;;1.95;1.85;;;21.40;62.30;;;;;;5123092;27;20186;-85
2023/07/21 11:18:00;;;;;;;1.42;1.33;;;21.40;62.30;;;;;;5159373;27;20515;-85
2023/07/21 11:20:26;;;;;;;1.90;1.80;;;21.30;62.50;;;;;;5123775;27;20151;-83
2023/07/21 11:22:52;;;;;;;2.03;1.80;;;21.40;62.20;;;;;;5158943;27;20147;-86
2023/07/21 11:25:18;;;;;;;1.70;1.60;;;21.40;62.30;;;;;;5158789;27;20540;-83
2023/07/21 11:27:44;;;;;;;1.65;1.55;;;21.40;62.20;;;;;;5123167;27;20207;-85
2023/07/21 11:30:22;;;;;;;1.73;1.63;;;21.50;61.80;;;;;;5140379;27;20139;-86
2023/07/21 11:32:47;;;;;;;1.80;1.70;;;21.50;61.70;;;;;;5088879;27;20235;-86
2023/07/21 11:35:13;;;;;;;1.70;1.60;;;21.50;61.50;;;;;;5139933;27;20194;-86
2023/07/21 11:37:42;;;;;;;1.70;1.60;;;21.50;61.20;;;;;;5140112;27;20186;-85
2023/07/21 11:40:13;;;;;;;1.70;1.60;;;21.50;61.20;;;;;;5122914;27;20163;-87
2023/07/21 11:42:48;;;;;;;1.70;1.60;;;21.50;61.10;;;;;;5140891;27;20166;-86
2023/07/21 11:45:39;;;;;;;2.00;1.80;;;21.60;61.20;;;;;;5158681;27;20176;-83
2023/07/21 11:48:21;;;;;;;1.92;1.73;;;21.50;61.00;;;;;;5158535;27;20234;-87
2023/07/21 11:50:52;;;;;;;1.80;1.70;;;21.50;61.00;;;;;;5122178;27;20182;-87
2023/07/21 11:53:19;;;;;;;1.85;1.60;;;21.50;61.10;;;;;;5141740;27;20151;-85
2023/07/21 11:55:45;;;;;;;1.60;1.50;;;21.50;61.00;;;;;;5121305;27;20202;-86
2023/07/21 11:58:12;;;;;;;1.90;1.80;;;21.50;60.80;;;;;;5138480;27;20155;-86
2023/07/21 12:00:38;;;;;;;2.13;1.58;;;21.40;60.90;;;;;;5138753;27;20159;-85
2023/07/21 12:03:04;;;;;;;1.85;1.73;;;21.50;60.70;;;;;;5122509;27;20166;-85
2023/07/21 12:05:31;;;;;;;1.70;1.58;;;21.50;60.60;;;;;;5139884;27;20162;-85
2023/07/21 12:07:59;;;;;;;1.63;1.52;;;21.50;60.50;;;;;;5123008;27;20158;-86
2023/07/21 12:10:25;;;;;;;1.65;1.55;;;21.50;60.00;;;;;;5139612;27;20159;-86
2023/07/21 12:12:51;;;;;;;1.50;1.40;;;21.60;59.90;;;;;;5130910;27;20167;-86
2023/07/21 12:15:18;;;;;;;1.50;1.40;;;21.60;59.80;;;;;;5120249;27;20399;-87
2023/07/21 12:17:47;;;;;;;1.50;1.40;;;21.60;59.90;;;;;;5099882;27;20174;-88
2023/07/21 12:20:13;;;;;;;1.42;1.33;;;21.60;59.80;;;;;;5118820;27;20212;-84
2023/07/21 12:22:44;;;;;;;2.08;1.85;;;21.60;59.60;;;;;;5128221;27;20633;-85
2023/07/21 12:25:12;;;;;;;1.83;1.73;;;21.60;59.70;;;;;;5087110;27;20190;-85
2023/07/21 12:27:40;;;;;;;2.40;1.80;;;21.50;59.60;;;;;;5106603;27;20612;-86
2023/07/21 12:30:08;;;;;;;1.58;1.40;;;21.60;59.50;;;;;;5091240;27;20189;-84
2023/07/21 12:32:36;;;;;;;1.30;1.20;;;21.60;59.50;;;;;;5101603;27;20179;-84
2023/07/21 12:35:03;;;;;;;1.70;1.60;;;21.60;59.40;;;;;;5073152;27;20187;-84
2023/07/21 12:37:29;;;;;;;1.60;1.50;;;21.60;59.60;;;;;;5101440;27;20167;-84
2023/07/21 12:39:56;;;;;;;1.55;1.45;;;21.60;59.40;;;;;;5103110;27;20209;-83
2023/07/21 12:42:22;;;;;;;1.50;1.40;;;21.60;59.40;;;;;;5118498;27;20272;-86
2023/07/21 12:44:48;;;;;;;2.92;1.73;;;21.60;59.40;;;;;;5119984;27;20534;-87
2023/07/21 12:47:14;;;;;;;1.70;1.60;;;21.50;59.60;;;;;;5121670;27;20155;-86
2023/07/21 12:49:40;;;;;;;1.60;1.50;;;21.60;59.50;;;;;;5120120;27;20155;-86